createdAt,value
2023-02-14T00:00:28.227Z,13.95
2023-02-14T00:02:56.324Z,13.20
2023-02-14T00:05:23.147Z,13.23
2023-02-14T00:07:49.832Z,14.15
2023-02-14T00:10:17.251Z,13.57
2023-02-14T00:12:43.915Z,13.98
2023-02-14T00:15:23.552Z,13.98
2023-02-14T00:17:51.644Z,12.95
2023-02-14T00:20:18.849Z,13.48
2023-02-14T00:22:45.508Z,14.20
2023-02-14T00:25:12.348Z,14.00
2023-02-14T00:27:39.181Z,13.15
2023-02-14T00:30:08.050Z,14.57
2023-02-14T00:32:38.480Z,13.38
2023-02-14T00:35:06.252Z,13.57
2023-02-14T00:37:33.708Z,13.57
2023-02-14T00:40:00.540Z,13.23
2023-02-14T00:42:27.223Z,13.07
2023-02-14T00:44:54.058Z,11.68
2023-02-14T00:47:20.778Z,13.25
2023-02-14T00:49:47.612Z,12.27
2023-02-14T00:52:14.399Z,12.20
2023-02-14T00:54:41.059Z,12.50
2023-02-14T00:57:07.739Z,11.55
2023-02-14T00:59:36.503Z,13.13
2023-02-14T01:02:04.182Z,12.30
2023-02-14T01:04:31.033Z,12.35
2023-02-14T01:06:57.730Z,12.05
2023-02-14T01:09:24.472Z,12.65
2023-02-14T01:11:51.188Z,11.63
2023-02-14T01:14:17.866Z,12.55
2023-02-14T01:16:44.571Z,13.20
2023-02-14T01:19:11.321Z,12.13
2023-02-14T01:21:38.119Z,12.82
2023-02-14T01:24:07.299Z,12.90
2023-02-14T01:26:35.112Z,12.50
2023-02-14T01:29:02.991Z,11.98
2023-02-14T01:31:32.126Z,12.35
2023-02-14T01:33:59.629Z,12.57
2023-02-14T01:36:35.191Z,13.18
2023-02-14T01:39:07.819Z,11.50
2023-02-14T01:41:36.483Z,12.30
2023-02-14T01:44:04.774Z,12.10
2023-02-14T01:46:34.163Z,12.35
2023-02-14T01:49:22.074Z,12.13
2023-02-14T01:52:17.004Z,11.75
2023-02-14T01:54:52.047Z,12.20
2023-02-14T01:57:22.757Z,12.77
2023-02-14T01:59:56.394Z,13.20
2023-02-14T02:02:23.955Z,12.30
2023-02-14T02:04:55.688Z,12.13
2023-02-14T02:07:27.540Z,12.50
2023-02-14T02:10:01.176Z,12.60
2023-02-14T02:12:30.535Z,11.55
2023-02-14T02:14:59.897Z,10.68
2023-02-14T02:17:35.399Z,11.57
2023-02-14T02:20:23.336Z,12.35
2023-02-14T02:23:15.787Z,11.32
2023-02-14T02:25:46.231Z,11.65
2023-02-14T02:32:58.603Z,10.98
2023-02-14T02:35:49.412Z,11.05
2023-02-14T02:41:22.958Z,11.75
2023-02-14T02:43:55.140Z,11.02
2023-02-14T02:46:49.773Z,11.57
2023-02-14T02:49:51.468Z,11.57
2023-02-14T02:52:45.960Z,11.38
2023-02-14T02:55:20.637Z,11.85
2023-02-14T02:57:49.100Z,11.20
2023-02-14T03:00:17.686Z,12.52
2023-02-14T03:03:08.349Z,12.23
2023-02-14T03:05:36.593Z,12.82
2023-02-14T03:08:04.950Z,14.25
2023-02-14T03:10:35.812Z,12.82
2023-02-14T03:13:15.963Z,14.93
2023-02-14T03:16:00.880Z,14.68
2023-02-14T03:19:00.227Z,14.43
2023-02-14T03:21:55.109Z,14.35
2023-02-14T03:24:49.159Z,13.70
2023-02-14T03:27:25.474Z,13.13
2023-02-14T03:30:14.431Z,13.40
2023-02-14T03:32:47.123Z,12.82
2023-02-14T03:35:30.436Z,13.30
2023-02-14T03:38:09.377Z,12.68
2023-02-14T03:40:49.344Z,13.13
2023-02-14T03:43:22.100Z,15.00
2023-02-14T03:46:11.762Z,12.00
2023-02-14T03:48:40.516Z,13.73
2023-02-14T03:51:10.673Z,13.10
2023-02-14T03:53:41.476Z,13.57
2023-02-14T03:56:17.364Z,13.40
2023-02-14T03:58:49.567Z,13.00
2023-02-14T04:01:28.036Z,13.23
2023-02-14T04:03:57.289Z,14.23
2023-02-14T04:06:24.211Z,14.52
2023-02-14T04:08:51.035Z,14.27
2023-02-14T04:11:17.791Z,14.90
2023-02-14T04:13:44.515Z,14.68
2023-02-14T04:16:11.280Z,14.50
2023-02-14T04:18:56.904Z,15.05
2023-02-14T04:21:23.617Z,13.70
2023-02-14T04:23:50.270Z,14.82
2023-02-14T04:26:16.917Z,14.18
2023-02-14T04:28:43.555Z,13.88
2023-02-14T04:31:11.317Z,13.77
2023-02-14T04:33:39.263Z,14.23
2023-02-14T04:36:06.311Z,15.18
2023-02-14T04:38:33.467Z,14.55
2023-02-14T04:41:00.431Z,12.88
2023-02-14T04:43:27.484Z,14.93
2023-02-14T04:45:54.189Z,15.05
2023-02-14T04:48:20.848Z,14.85
2023-02-14T04:50:52.747Z,14.40
2023-02-14T04:53:19.783Z,14.90
2023-02-14T04:55:48.454Z,16.00
2023-02-14T04:58:15.130Z,14.65
2023-02-14T05:00:41.853Z,15.82
2023-02-14T05:03:08.513Z,15.52
2023-02-14T05:05:35.161Z,14.80
2023-02-14T05:08:01.904Z,13.80
2023-02-14T05:10:29.122Z,16.45
2023-02-14T05:12:55.844Z,15.70
2023-02-14T05:15:22.574Z,13.75
2023-02-14T05:17:49.190Z,14.55
2023-02-14T05:20:15.860Z,14.73
2023-02-14T05:22:42.506Z,14.88
2023-02-14T05:25:09.239Z,15.75
2023-02-14T05:27:35.918Z,15.57
2023-02-14T05:30:02.709Z,15.38
2023-02-14T05:32:29.497Z,15.82
2023-02-14T05:34:56.123Z,16.38
2023-02-14T05:37:22.761Z,17.02
2023-02-14T05:39:49.445Z,15.70
2023-02-14T05:42:16.166Z,16.75
2023-02-14T05:44:42.898Z,16.40
2023-02-14T05:47:11.576Z,16.10
2023-02-14T05:49:39.521Z,15.60
2023-02-14T05:52:06.389Z,15.07
2023-02-14T05:54:33.030Z,15.48
2023-02-14T05:56:59.752Z,15.30
2023-02-14T05:59:26.487Z,15.25
2023-02-14T06:01:53.183Z,16.27
2023-02-14T06:04:19.944Z,15.63
2023-02-14T06:06:46.621Z,14.23
2023-02-14T06:09:13.651Z,14.75
2023-02-14T06:11:40.567Z,14.27
2023-02-14T06:14:07.284Z,15.45
2023-02-14T06:16:34.088Z,15.50
2023-02-14T06:19:00.778Z,16.88
2023-02-14T06:21:27.441Z,15.50
2023-02-14T06:23:54.151Z,15.48
2023-02-14T06:26:20.870Z,15.35
2023-02-14T06:28:47.550Z,14.80
2023-02-14T06:31:18.087Z,15.63
2023-02-14T06:33:44.841Z,15.27
2023-02-14T06:36:12.050Z,15.77
2023-02-14T06:38:38.763Z,14.52
2023-02-14T06:41:09.945Z,15.18
2023-02-14T06:43:37.768Z,15.73
2023-02-14T06:46:04.597Z,15.75
2023-02-14T06:48:31.266Z,17.48
2023-02-14T06:50:58.493Z,16.35
2023-02-14T06:53:25.349Z,16.73
2023-02-14T06:55:52.012Z,16.33
2023-02-14T06:58:18.787Z,17.50
2023-02-14T07:00:46.357Z,17.10
2023-02-14T07:03:13.306Z,18.23
2023-02-14T07:05:40.292Z,16.35
2023-02-14T07:08:08.028Z,17.35
2023-02-14T07:10:35.004Z,16.90
2023-02-14T07:13:02.131Z,16.92
2023-02-14T07:15:28.958Z,18.10
2023-02-14T07:17:55.736Z,17.08
2023-02-14T07:20:22.415Z,17.58
2023-02-14T07:22:49.127Z,18.15
2023-02-14T07:25:15.855Z,17.80
2023-02-14T07:27:44.183Z,19.50
2023-02-14T07:30:12.164Z,19.60
2023-02-14T07:32:39.468Z,16.88
2023-02-14T07:35:07.334Z,17.48
2023-02-14T07:37:34.991Z,17.70
2023-02-14T07:40:03.774Z,18.30
2023-02-14T07:42:30.490Z,18.92
2023-02-14T07:44:57.207Z,26.75
2023-02-14T07:47:24.963Z,28.40
2023-02-14T07:49:51.709Z,25.95
2023-02-14T07:52:18.408Z,22.63
2023-02-14T07:54:45.153Z,22.95
2023-02-14T07:57:11.820Z,22.27
2023-02-14T07:59:38.516Z,22.88
2023-02-14T08:02:05.431Z,25.05
2023-02-14T08:04:33.808Z,24.40
2023-02-14T08:07:00.882Z,26.52
2023-02-14T08:09:27.748Z,26.38
2023-02-14T08:12:14.758Z,26.73
2023-02-14T08:14:42.244Z,26.23
2023-02-14T08:17:10.080Z,27.98
2023-02-14T08:19:37.337Z,27.15
2023-02-14T08:22:05.191Z,26.45
2023-02-14T08:24:32.136Z,26.77
2023-02-14T08:26:58.969Z,27.27
2023-02-14T08:29:25.836Z,25.70
2023-02-14T08:31:53.487Z,25.80
2023-02-14T08:34:20.237Z,25.00
2023-02-14T08:36:47.414Z,25.17
2023-02-14T08:39:14.822Z,24.52
2023-02-14T08:41:41.456Z,24.15
2023-02-14T08:44:08.110Z,23.50
2023-02-14T08:46:34.966Z,21.95
2023-02-14T08:49:01.665Z,21.35
2023-02-14T08:51:28.383Z,22.58
2023-02-14T08:53:55.832Z,20.80
2023-02-14T08:56:22.680Z,21.42
2023-02-14T08:58:53.044Z,21.08
2023-02-14T09:01:20.104Z,21.10
2023-02-14T09:03:47.174Z,22.63
2023-02-14T09:06:17.148Z,20.42
2023-02-14T09:08:45.469Z,20.20
2023-02-14T09:11:22.017Z,18.65
2023-02-14T09:13:53.020Z,18.95
2023-02-14T09:16:24.221Z,20.15
2023-02-14T09:18:52.705Z,19.58
2023-02-14T09:21:25.329Z,19.83
2023-02-14T09:23:52.463Z,19.35
2023-02-14T09:26:19.255Z,19.73
2023-02-14T09:28:46.252Z,19.25
2023-02-14T09:31:17.719Z,18.60
2023-02-14T09:33:46.562Z,19.73
2023-02-14T09:36:13.389Z,20.85
2023-02-14T09:38:40.284Z,19.35
2023-02-14T09:41:08.815Z,20.63
2023-02-14T09:43:51.595Z,19.40
2023-02-14T09:46:20.444Z,18.67
2023-02-14T09:48:49.869Z,20.15
2023-02-14T09:51:25.751Z,19.75
2023-02-14T09:54:13.422Z,20.63
2023-02-14T09:56:58.432Z,18.80
2023-02-14T09:59:40.390Z,18.45
2023-02-14T10:02:44.787Z,18.60
2023-02-14T10:05:28.765Z,18.15
2023-02-14T10:08:02.573Z,18.10
2023-02-14T10:10:33.703Z,19.98
2023-02-14T10:13:13.771Z,18.25
2023-02-14T10:15:44.901Z,19.25
2023-02-14T10:18:20.276Z,17.92
2023-02-14T10:20:56.196Z,18.05
2023-02-14T10:23:44.978Z,17.33
2023-02-14T10:26:29.938Z,18.52
2023-02-14T10:28:56.844Z,17.20
2023-02-14T10:31:37.733Z,18.30
2023-02-14T10:34:21.143Z,17.00
2023-02-14T10:37:02.294Z,17.30
2023-02-14T10:39:38.644Z,18.10
2023-02-14T10:42:43.073Z,16.40
2023-02-14T10:45:39.204Z,17.05
2023-02-14T10:48:08.609Z,16.58
2023-02-14T10:51:13.373Z,16.88
2023-02-14T10:54:17.288Z,16.63
2023-02-14T10:56:50.263Z,16.50
2023-02-14T10:59:28.658Z,15.98
2023-02-14T11:01:56.852Z,15.88
2023-02-14T11:04:25.213Z,16.35
2023-02-14T11:06:53.617Z,14.82
2023-02-14T11:09:20.879Z,14.75
2023-02-14T11:11:53.388Z,14.80
2023-02-14T11:14:35.667Z,14.88
2023-02-14T11:17:30.361Z,15.43
2023-02-14T11:20:06.238Z,14.68
2023-02-14T11:22:34.829Z,14.85
2023-02-14T11:25:06.856Z,14.48
2023-02-14T11:27:33.893Z,14.52
2023-02-14T11:30:02.053Z,15.77
2023-02-14T11:32:31.695Z,16.63
2023-02-14T11:35:04.291Z,16.10
2023-02-14T11:37:36.997Z,16.48
2023-02-14T11:40:05.176Z,18.25
2023-02-14T11:42:44.009Z,16.42
2023-02-14T11:45:33.316Z,15.38
2023-02-14T11:48:36.765Z,17.02
2023-02-14T11:51:13.829Z,17.00
2023-02-14T11:53:51.179Z,15.65
2023-02-14T11:56:20.164Z,16.55
2023-02-14T11:58:59.680Z,16.02
2023-02-14T12:01:30.425Z,16.95
2023-02-14T12:04:00.705Z,15.57
2023-02-14T12:06:32.958Z,16.30
2023-02-14T12:09:24.953Z,15.27
2023-02-14T12:14:29.674Z,13.77
2023-02-14T12:17:11.641Z,15.50
2023-02-14T12:19:46.052Z,15.32
2023-02-14T12:22:20.917Z,14.25
2023-02-14T12:25:17.564Z,13.73
2023-02-14T12:27:50.488Z,14.82
2023-02-14T12:30:20.759Z,14.65
2023-02-14T12:32:53.204Z,15.32
2023-02-14T12:35:29.839Z,15.02
2023-02-14T12:38:38.870Z,15.30
2023-02-14T12:41:36.444Z,14.25
2023-02-14T12:44:16.206Z,14.13
2023-02-14T12:46:58.774Z,12.93
2023-02-14T12:49:49.315Z,14.25
2023-02-14T12:52:55.927Z,14.18
2023-02-14T12:55:32.418Z,13.93
2023-02-14T12:58:28.007Z,15.13
2023-02-14T13:00:57.849Z,13.13
2023-02-14T13:03:45.988Z,14.07
2023-02-14T13:06:28.423Z,12.50
2023-02-14T13:09:11.442Z,13.45
2023-02-14T13:12:04.644Z,13.35
2023-02-14T13:14:52.576Z,13.32
2023-02-14T13:17:42.126Z,13.60
2023-02-14T13:20:28.530Z,13.80
2023-02-14T13:22:57.324Z,13.50
2023-02-14T13:25:31.634Z,13.00
2023-02-14T13:28:01.540Z,14.57
2023-02-14T13:30:37.067Z,13.60
2023-02-14T13:33:14.538Z,13.02
2023-02-14T13:35:41.775Z,14.07
2023-02-14T13:38:15.449Z,13.20
2023-02-14T13:40:42.727Z,13.77
2023-02-14T13:43:09.377Z,13.98
2023-02-14T13:45:37.139Z,12.23
2023-02-14T13:48:23.210Z,13.10
2023-02-14T13:51:04.682Z,14.32
2023-02-14T13:53:36.914Z,14.13
2023-02-14T13:56:06.688Z,17.02
2023-02-14T13:58:34.892Z,15.32
2023-02-14T14:01:39.125Z,15.10
2023-02-14T14:04:31.743Z,16.95
2023-02-14T14:07:04.096Z,17.20
2023-02-14T14:09:43.187Z,17.45
2023-02-14T14:12:28.472Z,18.95
2023-02-14T14:15:07.981Z,19.08
2023-02-14T14:17:41.538Z,18.58
2023-02-14T14:20:20.153Z,18.70
2023-02-14T14:22:49.387Z,18.67
2023-02-14T14:25:31.419Z,18.77
2023-02-14T14:27:59.110Z,18.98
2023-02-14T14:30:31.009Z,18.85
2023-02-14T14:33:16.003Z,18.95
2023-02-14T14:35:57.225Z,18.73
2023-02-14T14:38:25.144Z,17.58
2023-02-14T14:40:52.867Z,18.48
2023-02-14T14:43:33.028Z,18.20
2023-02-14T14:46:02.264Z,16.98
2023-02-14T14:48:33.054Z,17.65
2023-02-14T14:51:00.492Z,17.48
2023-02-14T14:53:32.468Z,18.25
2023-02-14T14:55:59.699Z,17.63
2023-02-14T14:58:39.620Z,17.50
2023-02-14T15:01:10.812Z,18.20
2023-02-14T15:03:37.568Z,18.85
2023-02-14T15:06:29.834Z,17.90
2023-02-14T15:08:56.646Z,17.92
2023-02-14T15:11:47.429Z,18.13
2023-02-14T15:14:21.787Z,18.35
2023-02-14T15:16:51.890Z,18.98
2023-02-14T15:19:21.172Z,17.58
2023-02-14T15:21:48.137Z,18.92
2023-02-14T15:24:17.504Z,19.08
2023-02-14T15:26:47.643Z,19.27
2023-02-14T15:29:23.989Z,19.13
2023-02-14T15:31:51.550Z,19.33
2023-02-14T15:34:28.212Z,19.98
2023-02-14T15:37:03.312Z,19.35
2023-02-14T15:39:41.417Z,19.58
2023-02-14T15:42:25.876Z,19.17
2023-02-14T15:45:29.817Z,19.83
2023-02-14T15:48:03.999Z,19.83
2023-02-14T15:50:33.401Z,18.13
2023-02-14T15:53:05.598Z,18.17
2023-02-14T15:55:33.465Z,20.05
2023-02-14T15:58:03.765Z,18.67
2023-02-14T16:00:31.680Z,17.98
2023-02-14T16:03:06.483Z,19.02
2023-02-14T16:05:33.769Z,19.55
2023-02-14T16:08:24.877Z,17.92
2023-02-14T16:11:01.001Z,17.90
2023-02-14T16:13:36.315Z,19.50
2023-02-14T16:16:08.527Z,18.98
2023-02-14T16:18:42.902Z,19.40
2023-02-14T16:21:31.111Z,18.63
2023-02-14T16:24:10.668Z,19.08
2023-02-14T16:26:40.395Z,17.98
2023-02-14T16:29:19.387Z,18.90
2023-02-14T16:32:14.095Z,20.48
2023-02-14T16:34:36.424Z,19.75
2023-02-14T16:37:08.962Z,20.42
2023-02-14T16:39:35.982Z,19.52
2023-02-14T16:42:03.830Z,21.13
2023-02-14T16:44:30.576Z,19.23
2023-02-14T16:46:57.200Z,20.37
2023-02-14T16:49:23.891Z,20.77
2023-02-14T16:51:52.179Z,19.13
2023-02-14T16:54:21.071Z,20.08
2023-02-14T16:56:47.705Z,21.45
2023-02-14T16:59:14.374Z,22.05
2023-02-14T17:01:41.053Z,22.33
2023-02-14T17:04:07.748Z,22.15
2023-02-14T17:06:38.274Z,23.42
2023-02-14T17:09:09.020Z,23.45
2023-02-14T17:11:38.884Z,22.27
2023-02-14T17:14:06.294Z,22.85
2023-02-14T17:16:33.713Z,23.55
2023-02-14T17:19:02.751Z,23.05
2023-02-14T17:21:29.949Z,24.63
2023-02-14T17:23:57.118Z,22.88
2023-02-14T17:26:24.054Z,22.13
2023-02-14T17:28:50.712Z,24.35
2023-02-14T17:31:17.995Z,37.55
2023-02-14T17:33:44.733Z,27.30
2023-02-14T17:36:13.598Z,26.67
2023-02-14T17:38:43.349Z,26.40
2023-02-14T17:41:25.008Z,23.48
2023-02-14T17:43:54.859Z,24.90
2023-02-14T17:46:22.054Z,22.90
2023-02-14T17:48:49.552Z,23.55
2023-02-14T17:51:20.333Z,22.40
2023-02-14T17:53:48.226Z,20.60
2023-02-14T17:56:22.951Z,22.85
2023-02-14T17:58:51.377Z,22.85
2023-02-14T18:01:26.960Z,23.08
2023-02-14T18:03:54.913Z,22.90
2023-02-14T18:06:21.968Z,23.17
2023-02-14T18:08:50.415Z,22.83
2023-02-14T18:11:19.500Z,23.25
2023-02-14T18:13:46.448Z,23.63
2023-02-14T18:16:15.858Z,21.90
2023-02-14T18:18:42.618Z,24.27
2023-02-14T18:21:11.461Z,23.35
2023-02-14T18:23:38.738Z,23.05
2023-02-14T18:26:09.762Z,24.92
2023-02-14T18:28:36.480Z,23.13
2023-02-14T18:31:08.662Z,22.55
2023-02-14T18:33:36.643Z,25.17
2023-02-14T18:36:07.122Z,26.85
2023-02-14T18:38:34.836Z,24.30
2023-02-14T18:41:06.280Z,24.23
2023-02-14T18:43:33.155Z,23.52
2023-02-14T18:46:17.570Z,22.13
2023-02-14T18:48:44.847Z,24.13
2023-02-14T18:51:14.268Z,25.13
2023-02-14T18:53:41.790Z,24.42
2023-02-14T18:56:14.422Z,24.17
2023-02-14T18:58:43.381Z,25.23
2023-02-14T19:01:11.032Z,25.80
2023-02-14T19:03:39.116Z,23.77
2023-02-14T19:06:06.658Z,24.70
2023-02-14T19:08:34.765Z,24.67
2023-02-14T19:11:02.301Z,25.50
2023-02-14T19:13:31.992Z,26.40
2023-02-14T19:15:59.503Z,26.52
2023-02-14T19:18:26.975Z,26.20
2023-02-14T19:20:53.674Z,27.40
2023-02-14T19:23:20.314Z,28.83
2023-02-14T19:25:46.950Z,28.25
2023-02-14T19:28:13.665Z,28.88
2023-02-14T19:30:40.435Z,27.40
2023-02-14T19:33:07.137Z,28.08
2023-02-14T19:35:33.805Z,28.30
2023-02-14T19:38:03.306Z,28.73
2023-02-14T19:40:30.740Z,27.42
2023-02-14T19:42:57.652Z,28.17
2023-02-14T19:45:24.413Z,27.27
2023-02-14T19:47:51.039Z,25.95
2023-02-14T19:50:20.283Z,28.55
2023-02-14T19:52:47.179Z,27.75
2023-02-14T19:55:22.663Z,29.17
2023-02-14T19:57:49.409Z,27.85
2023-02-14T20:00:16.904Z,28.98
2023-02-14T20:02:47.894Z,27.58
2023-02-14T20:05:16.456Z,28.55
2023-02-14T20:07:43.726Z,27.67
2023-02-14T20:10:11.674Z,27.58
2023-02-14T20:12:38.845Z,27.08
2023-02-14T20:15:06.520Z,27.02
2023-02-14T20:17:33.385Z,27.52
2023-02-14T20:20:00.397Z,26.33
2023-02-14T20:22:27.849Z,25.88
2023-02-14T20:24:54.528Z,26.83
2023-02-14T20:27:24.470Z,26.55
2023-02-14T20:29:51.754Z,26.98
2023-02-14T20:32:18.541Z,25.52
2023-02-14T20:34:45.650Z,26.38
2023-02-14T20:37:12.434Z,26.65
2023-02-14T20:39:39.199Z,27.58
2023-02-14T20:42:06.021Z,26.50
2023-02-14T20:44:33.690Z,27.58
2023-02-14T20:47:00.405Z,28.13
2023-02-14T20:49:28.402Z,28.42
2023-02-14T20:51:55.899Z,28.02
2023-02-14T20:54:24.747Z,28.40
2023-02-14T20:56:52.648Z,26.48
2023-02-14T20:59:26.161Z,27.25
2023-02-14T21:01:54.647Z,25.40
2023-02-14T21:04:21.703Z,27.08
2023-02-14T21:06:49.048Z,26.35
2023-02-14T21:09:16.485Z,26.92
2023-02-14T21:11:43.107Z,25.65
2023-02-14T21:14:10.422Z,25.35
2023-02-14T21:16:37.062Z,24.83
2023-02-14T21:19:04.644Z,24.50
2023-02-14T21:21:36.560Z,24.70
2023-02-14T21:24:11.840Z,23.90
2023-02-14T21:26:39.455Z,24.58
2023-02-14T21:29:07.300Z,25.20
2023-02-14T21:31:34.734Z,25.02
2023-02-14T21:34:02.735Z,23.98
2023-02-14T21:36:31.912Z,23.00
2023-02-14T21:38:59.915Z,23.63
2023-02-14T21:41:31.154Z,23.42
2023-02-14T21:43:59.478Z,21.65
2023-02-14T21:46:30.642Z,21.83
2023-02-14T21:49:18.458Z,22.63
2023-02-14T21:51:46.228Z,21.55
2023-02-14T21:54:13.429Z,20.92
2023-02-14T21:56:43.880Z,21.35
2023-02-14T21:59:11.292Z,21.65
2023-02-14T22:01:41.023Z,22.23
2023-02-14T22:04:11.012Z,21.90
2023-02-14T22:06:39.259Z,20.40
2023-02-14T22:09:06.745Z,20.35
2023-02-14T22:11:34.255Z,21.85
2023-02-14T22:14:01.135Z,20.92
2023-02-14T22:16:28.138Z,20.13
2023-02-14T22:18:55.026Z,20.48
2023-02-14T22:21:26.412Z,20.60
2023-02-14T22:23:55.099Z,21.75
2023-02-14T22:26:27.445Z,20.92
2023-02-14T22:28:59.129Z,20.55
2023-02-14T22:33:53.897Z,19.67
2023-02-14T22:36:20.641Z,19.92
2023-02-14T22:38:47.426Z,21.73
2023-02-14T22:41:16.789Z,19.70
2023-02-14T22:43:44.073Z,20.55
2023-02-14T22:46:13.914Z,20.45
2023-02-14T22:48:41.031Z,21.20
2023-02-14T22:51:23.616Z,21.35
2023-02-14T22:53:51.994Z,20.92
2023-02-14T22:56:22.153Z,22.42
2023-02-14T22:58:48.855Z,22.17
2023-02-14T23:01:18.454Z,22.08
2023-02-14T23:03:45.744Z,21.60
2023-02-14T23:06:12.761Z,21.95
2023-02-14T23:08:43.959Z,23.83
2023-02-14T23:11:14.109Z,21.70
2023-02-14T23:13:59.426Z,23.33
2023-02-14T23:16:45.069Z,22.45
2023-02-14T23:19:51.526Z,22.38
2023-02-14T23:22:35.546Z,22.35
2023-02-14T23:25:05.065Z,22.15
2023-02-14T23:27:43.874Z,23.00
2023-02-14T23:30:14.043Z,23.73
2023-02-14T23:32:41.316Z,22.70
2023-02-14T23:35:08.269Z,22.58
2023-02-14T23:37:34.945Z,23.35
2023-02-14T23:40:01.753Z,23.27
2023-02-14T23:42:28.400Z,23.98
2023-02-14T23:45:15.041Z,24.13
2023-02-14T23:47:41.667Z,24.13
2023-02-14T23:50:08.853Z,23.42
2023-02-14T23:52:36.994Z,25.75
2023-02-14T23:55:05.512Z,25.55
2023-02-14T23:57:32.153Z,24.92
